createdAt,value
2022-08-19T00:04:41.534Z,26.70
2022-08-19T00:09:44.477Z,22.60
2022-08-19T00:14:47.380Z,23.10
2022-08-19T00:19:50.320Z,19.30
2022-08-19T00:24:53.485Z,24.40
2022-08-19T00:29:57.670Z,26.40
2022-08-19T00:35:00.430Z,25.30
2022-08-19T00:40:07.633Z,23.70
2022-08-19T00:45:18.195Z,24.10
2022-08-19T00:50:22.743Z,19.80
2022-08-19T00:55:29.774Z,23.40
2022-08-19T01:00:37.568Z,23.20
2022-08-19T01:05:43.347Z,21.10
2022-08-19T01:10:55.320Z,20.30
2022-08-19T01:16:02.895Z,28.70
2022-08-19T01:21:41.613Z,25.10
2022-08-19T01:26:46.567Z,24.90
2022-08-19T01:31:50.247Z,23.80
2022-08-19T01:36:53.155Z,24.10
2022-08-19T01:41:56.337Z,28.90
2022-08-19T01:46:59.134Z,25.20
2022-08-19T01:52:02.434Z,23.10
2022-08-19T01:57:10.126Z,25.50
2022-08-19T02:02:12.942Z,25.50
2022-08-19T02:07:15.730Z,22.80
2022-08-19T02:12:18.449Z,25.50
2022-08-19T02:17:21.656Z,24.70
2022-08-19T02:22:26.597Z,20.60
2022-08-19T02:27:29.320Z,25.60
2022-08-19T02:32:32.170Z,32.50
2022-08-19T02:37:54.248Z,27.10
2022-08-19T02:42:57.367Z,25.50
2022-08-19T02:48:00.078Z,24.10
2022-08-19T02:53:06.708Z,28.60
2022-08-19T02:58:09.434Z,27.10
2022-08-19T03:03:12.949Z,29.00
2022-08-19T03:08:15.925Z,24.10
2022-08-19T03:13:19.270Z,25.80
2022-08-19T03:18:23.317Z,25.90
2022-08-19T03:23:26.250Z,25.70
2022-08-19T03:28:29.491Z,25.10
2022-08-19T03:33:33.835Z,31.90
2022-08-19T03:38:44.079Z,30.20
2022-08-19T03:43:47.960Z,26.90
2022-08-19T03:48:56.732Z,22.70
2022-08-19T03:54:02.150Z,23.00
2022-08-19T03:59:07.307Z,26.50
2022-08-19T04:04:10.455Z,36.40
2022-08-19T04:09:13.212Z,35.90
2022-08-19T04:14:20.458Z,33.60
2022-08-19T04:19:24.238Z,33.90
2022-08-19T04:24:27.308Z,30.70
2022-08-19T04:29:31.299Z,26.20
2022-08-19T04:34:34.083Z,23.10
2022-08-19T04:39:55.420Z,25.30
2022-08-19T04:45:04.030Z,27.20
2022-08-19T04:50:10.149Z,24.90
2022-08-19T04:55:13.669Z,21.70
2022-08-19T05:00:16.526Z,24.40
2022-08-19T05:05:19.401Z,32.40
2022-08-19T05:10:22.299Z,26.00
2022-08-19T05:15:25.023Z,21.70
2022-08-19T05:20:46.714Z,22.30
2022-08-19T05:25:51.237Z,19.20
2022-08-19T05:30:56.507Z,18.70
2022-08-19T05:35:59.705Z,22.80
2022-08-19T05:41:10.657Z,17.90
2022-08-19T05:46:27.888Z,24.60
2022-08-19T05:51:30.934Z,20.00
2022-08-19T05:56:37.655Z,21.50
2022-08-19T06:01:42.951Z,16.80
2022-08-19T06:06:51.331Z,19.40
2022-08-19T06:11:59.862Z,26.30
2022-08-19T06:17:06.777Z,17.80
2022-08-19T06:22:12.965Z,21.60
2022-08-19T06:27:16.992Z,19.70
2022-08-19T06:32:20.157Z,20.60
2022-08-19T06:37:23.383Z,18.70
2022-08-19T06:42:26.106Z,17.00
2022-08-19T06:47:29.198Z,18.60
2022-08-19T06:52:36.405Z,19.50
2022-08-19T06:57:39.694Z,23.00
2022-08-19T07:02:48.259Z,22.40
2022-08-19T07:08:02.865Z,15.00
2022-08-19T07:13:09.120Z,17.20
2022-08-19T07:18:12.134Z,16.00
2022-08-19T07:23:15.886Z,16.00
2022-08-19T07:28:24.514Z,15.10
2022-08-19T07:33:28.101Z,15.50
2022-08-19T07:38:30.868Z,20.30
2022-08-19T07:43:34.962Z,15.70
2022-08-19T07:48:38.036Z,16.70
2022-08-19T07:53:40.920Z,16.00
2022-08-19T07:58:46.385Z,18.10
2022-08-19T08:04:09.649Z,15.40
2022-08-19T08:09:13.477Z,19.30
2022-08-19T08:14:29.437Z,14.80
2022-08-19T08:19:39.087Z,14.70
2022-08-19T08:24:41.771Z,16.20
2022-08-19T08:29:45.510Z,13.80
2022-08-19T08:34:51.728Z,17.00
2022-08-19T08:39:55.529Z,17.70
2022-08-19T08:45:00.349Z,13.10
2022-08-19T08:50:16.459Z,13.80
2022-08-19T08:55:23.926Z,17.70
2022-08-19T09:00:31.402Z,16.70
2022-08-19T09:05:50.024Z,13.10
2022-08-19T09:10:56.586Z,14.90
2022-08-19T09:16:07.776Z,17.00
2022-08-19T09:21:11.199Z,15.50
2022-08-19T09:26:20.036Z,13.90
2022-08-19T09:31:26.277Z,12.70
2022-08-19T09:36:35.446Z,15.60
2022-08-19T09:41:38.451Z,11.40
2022-08-19T09:46:43.558Z,18.50
2022-08-19T09:51:51.536Z,19.00
2022-08-19T09:56:55.128Z,13.40
2022-08-19T10:02:03.810Z,22.20
2022-08-19T10:07:14.080Z,18.70
2022-08-19T10:12:17.825Z,15.70
2022-08-19T10:17:26.701Z,15.50
2022-08-19T10:22:30.427Z,17.10
2022-08-19T10:27:34.447Z,18.10
2022-08-19T10:32:38.678Z,17.70
2022-08-19T10:43:05.016Z,23.30
2022-08-19T10:48:07.872Z,18.80
2022-08-19T10:53:14.902Z,18.40
2022-08-19T10:58:23.265Z,20.90
2022-08-19T11:03:30.464Z,15.50
2022-08-19T11:08:34.482Z,18.30
2022-08-19T11:13:40.567Z,17.30
2022-08-19T11:18:46.560Z,13.90
2022-08-19T11:23:53.061Z,15.00
2022-08-19T11:28:58.575Z,14.70
2022-08-19T11:34:04.226Z,16.50
2022-08-19T11:39:08.774Z,12.70
2022-08-19T11:44:11.544Z,13.90
2022-08-19T11:49:16.885Z,12.10
2022-08-19T11:54:19.637Z,48.90
2022-08-19T11:59:22.324Z,20.50
2022-08-19T12:04:25.172Z,18.60
2022-08-19T12:09:27.890Z,20.60
2022-08-19T12:14:33.790Z,23.90
2022-08-19T12:19:37.905Z,15.50
2022-08-19T12:24:40.601Z,13.30
2022-08-19T12:29:43.451Z,23.70
2022-08-19T12:34:48.332Z,17.00
2022-08-19T12:39:51.142Z,22.20
2022-08-19T12:44:53.972Z,17.00
2022-08-19T12:49:56.839Z,17.50
2022-08-19T12:54:59.629Z,18.20
2022-08-19T13:00:11.804Z,15.20
2022-08-19T13:05:23.252Z,18.60
2022-08-19T13:10:35.878Z,17.60
2022-08-19T13:15:45.603Z,15.20
2022-08-19T13:20:52.585Z,14.80
2022-08-19T13:26:01.414Z,22.10
2022-08-19T13:31:22.869Z,16.00
2022-08-19T13:36:25.768Z,14.70
2022-08-19T13:41:28.859Z,19.10
2022-08-19T13:46:31.711Z,18.20
2022-08-19T13:51:34.411Z,17.10
2022-08-19T13:56:42.574Z,14.30
2022-08-19T14:01:45.350Z,27.10
2022-08-19T14:06:48.058Z,18.80
2022-08-19T14:11:51.816Z,11.20
2022-08-19T14:16:54.521Z,14.80
2022-08-19T14:21:58.702Z,13.70
2022-08-19T14:27:01.693Z,17.80
2022-08-19T14:32:04.844Z,14.40
2022-08-19T14:37:07.609Z,13.40
2022-08-19T14:42:17.179Z,18.60
2022-08-19T14:47:19.942Z,10.30
2022-08-19T14:52:26.172Z,15.40
2022-08-19T14:57:28.922Z,15.70
2022-08-19T15:02:34.824Z,16.60
2022-08-19T15:07:39.302Z,18.10
2022-08-19T15:12:43.713Z,18.70
2022-08-19T15:17:47.488Z,13.40
2022-08-19T15:22:50.867Z,12.10
2022-08-19T15:27:54.134Z,12.30
2022-08-19T15:32:59.983Z,12.60
2022-08-19T15:38:02.763Z,20.60
2022-08-19T15:43:05.973Z,12.30
2022-08-19T15:48:08.743Z,16.60
2022-08-19T15:53:11.996Z,13.40
2022-08-19T15:58:35.298Z,13.30
2022-08-19T16:03:56.893Z,10.60
2022-08-19T16:09:02.106Z,13.70
2022-08-19T16:14:05.338Z,16.30
2022-08-19T16:19:11.781Z,10.80
2022-08-19T16:24:17.516Z,12.70
2022-08-19T16:29:34.102Z,16.20
2022-08-19T16:34:43.375Z,21.20
2022-08-19T16:39:46.114Z,18.30
2022-08-19T16:44:49.053Z,10.40
2022-08-19T16:49:53.779Z,17.60
2022-08-19T16:54:58.309Z,14.20
2022-08-19T17:00:06.030Z,12.40
2022-08-19T17:05:10.240Z,13.80
2022-08-19T17:10:13.115Z,16.00
2022-08-19T17:15:15.915Z,16.90
2022-08-19T17:20:19.599Z,14.90
2022-08-19T17:25:23.262Z,18.30
2022-08-19T17:30:26.371Z,16.40
2022-08-19T17:35:29.627Z,17.80
2022-08-19T17:40:32.585Z,20.90
2022-08-19T17:45:38.727Z,14.10
2022-08-19T17:50:41.793Z,19.00
2022-08-19T17:55:44.572Z,14.20
2022-08-19T18:00:53.695Z,13.60
2022-08-19T18:05:57.446Z,14.00
2022-08-19T18:11:00.759Z,14.90
2022-08-19T18:16:07.062Z,16.40
2022-08-19T18:21:10.311Z,17.50
2022-08-19T18:26:13.420Z,15.60
2022-08-19T18:31:16.813Z,20.30
2022-08-19T18:36:37.529Z,19.30
2022-08-19T18:42:01.296Z,10.90
2022-08-19T18:47:23.166Z,13.90
2022-08-19T18:57:30.133Z,17.30
2022-08-19T19:02:38.970Z,17.60
2022-08-19T19:07:42.491Z,12.30
2022-08-19T19:12:45.338Z,16.80
2022-08-19T19:17:48.176Z,19.00
2022-08-19T19:22:51.060Z,17.70
2022-08-19T19:27:58.941Z,16.10
2022-08-19T19:33:02.435Z,16.80
2022-08-19T19:38:05.182Z,18.40
2022-08-19T19:43:08.432Z,16.60
2022-08-19T19:48:13.616Z,16.20
2022-08-19T19:53:16.378Z,23.20
2022-08-19T19:58:21.254Z,16.50
2022-08-19T20:03:32.068Z,12.50
2022-08-19T20:08:53.802Z,12.10
2022-08-19T20:13:56.697Z,14.60
2022-08-19T20:19:01.491Z,16.00
2022-08-19T20:24:09.203Z,12.80
2022-08-19T20:29:40.028Z,14.50
2022-08-19T20:34:40.458Z,17.10
2022-08-19T20:39:43.374Z,9.80
2022-08-19T20:44:46.285Z,11.60
2022-08-19T20:49:49.043Z,12.50
2022-08-19T20:54:51.755Z,12.40
2022-08-19T20:59:54.539Z,12.50
2022-08-19T21:05:00.043Z,15.40
2022-08-19T21:10:04.854Z,21.50
2022-08-19T21:15:08.554Z,14.60
2022-08-19T21:20:11.457Z,13.80
2022-08-19T21:25:16.251Z,13.80
2022-08-19T21:30:19.047Z,11.40
2022-08-19T21:35:23.714Z,13.50
2022-08-19T21:40:27.758Z,11.10
2022-08-19T21:45:30.584Z,19.80
2022-08-19T21:50:33.384Z,12.00
2022-08-19T21:55:36.072Z,15.70
2022-08-19T22:00:39.916Z,17.30
2022-08-19T22:05:43.792Z,8.70
2022-08-19T22:10:49.700Z,12.80
2022-08-19T22:15:55.190Z,12.50
2022-08-19T22:20:57.968Z,16.10
2022-08-19T22:26:01.333Z,11.30
2022-08-19T22:31:05.983Z,13.40
2022-08-19T22:36:09.238Z,10.00
2022-08-19T22:41:11.985Z,14.60
2022-08-19T22:46:17.705Z,15.30
2022-08-19T22:51:39.403Z,13.80
2022-08-19T22:56:43.437Z,18.00
2022-08-19T23:01:46.441Z,15.10
2022-08-19T23:06:49.148Z,14.80
2022-08-19T23:11:51.894Z,18.80
2022-08-19T23:16:58.779Z,15.10
2022-08-19T23:22:02.679Z,12.90
2022-08-19T23:27:24.058Z,15.30
2022-08-19T23:32:27.398Z,13.20
2022-08-19T23:37:30.122Z,14.60
2022-08-19T23:42:33.171Z,22.40
2022-08-19T23:47:36.025Z,15.10
2022-08-19T23:52:58.955Z,14.60
2022-08-19T23:58:02.946Z,17.50
